Time;durP1;ratioP1;P1;durP2;ratioP2;P2;SDS_P1;SDS_P2;PMS_P1;PMS_P2;Temp;Humidity;BMP_temperature;BMP_pressure;BME280_temperature;BME280_humidity;BME280_pressure;Samples;Min_cycle;Max_cycle;Signal;HPM_P1;HPM_P2
2021/07/20 00:00:11;;;;;;;4.70;2.20;;;;;;;14.01;76.71;101162.19;5092548;28;20181;-68
2021/07/20 00:02:39;;;;;;;4.63;2.00;;;;;;;14.05;76.94;101166.41;5093655;28;20206;-68
2021/07/20 00:05:05;;;;;;;5.77;2.33;;;;;;;14.09;76.30;101162.59;5092479;28;20631;-68
2021/07/20 00:07:31;;;;;;;4.40;2.00;;;;;;;14.07;76.31;101175.22;5091737;28;20235;-68
2021/07/20 00:09:56;;;;;;;7.63;2.87;;;;;;;14.11;76.24;101165.16;5094102;28;20178;-69
2021/07/20 00:12:21;;;;;;;5.80;1.93;;;;;;;14.17;76.02;101163.94;5100696;28;20193;-69
2021/07/20 00:14:47;;;;;;;7.40;2.30;;;;;;;14.20;75.83;101171.81;5100842;28;20261;-69
2021/07/20 00:17:12;;;;;;;5.70;2.73;;;;;;;14.19;75.83;101162.91;5102697;28;20227;-69
2021/07/20 00:19:37;;;;;;;8.13;2.40;;;;;;;14.18;75.91;101168.38;5094796;28;20181;-68
2021/07/20 00:22:03;;;;;;;6.17;2.10;;;;;;;14.18;76.32;101171.91;5093601;28;20189;-69
2021/07/20 00:24:28;;;;;;;5.40;2.10;;;;;;;14.22;76.01;101173.44;5093409;28;20198;-68
2021/07/20 00:26:53;;;;;;;8.77;2.40;;;;;;;14.21;76.19;101181.59;5093440;28;20178;-68
2021/07/20 00:29:18;;;;;;;5.73;2.33;;;;;;;14.09;76.51;101175.13;5091902;28;20174;-68
2021/07/20 00:31:44;;;;;;;11.53;2.37;;;;;;;14.06;76.73;101173.50;5093120;28;20205;-68
2021/07/20 00:34:09;;;;;;;6.47;2.70;;;;;;;14.11;76.92;101175.03;5092021;28;20200;-68
2021/07/20 00:36:34;;;;;;;8.07;2.53;;;;;;;14.01;77.12;101175.63;5092239;28;20573;-68
2021/07/20 00:39:00;;;;;;;5.27;2.20;;;;;;;13.98;77.40;101174.94;5093563;28;20542;-68
2021/07/20 00:41:25;;;;;;;5.90;2.30;;;;;;;14.05;77.12;101178.97;5091738;28;20653;-68
2021/07/20 00:43:50;;;;;;;8.80;2.43;;;;;;;14.11;76.56;101169.69;5093077;28;20174;-68
2021/07/20 00:46:16;;;;;;;11.73;2.50;;;;;;;14.04;76.80;101169.19;5091903;28;20174;-68
2021/07/20 00:48:41;;;;;;;6.57;2.83;;;;;;;14.01;77.16;101170.25;5093080;28;20257;-68
2021/07/20 00:51:07;;;;;;;7.20;2.10;;;;;;;14.03;77.14;101178.22;5092881;28;20682;-68
2021/07/20 00:53:32;;;;;;;3.27;2.07;;;;;;;14.00;77.47;101173.91;5091918;28;20181;-68
2021/07/20 00:55:57;;;;;;;5.67;2.70;;;;;;;13.86;77.96;101170.34;5093020;28;20207;-68
2021/07/20 00:58:23;;;;;;;4.43;2.43;;;;;;;13.89;77.76;101170.16;5093074;28;20638;-68
2021/07/20 01:00:51;;;;;;;8.27;2.70;;;;;;;13.90;77.60;101172.75;5092771;28;20181;-68
2021/07/20 01:03:17;;;;;;;4.57;2.50;;;;;;;13.83;78.33;101168.72;5093148;28;20527;-68
2021/07/20 01:05:42;;;;;;;7.50;2.60;;;;;;;13.86;78.23;101165.84;5093243;28;20189;-68
2021/07/20 01:08:08;;;;;;;6.37;2.73;;;;;;;13.86;78.06;101163.16;5092695;28;20209;-68
2021/07/20 01:10:35;;;;;;;8.60;2.70;;;;;;;13.86;78.01;101160.47;5092072;28;20554;-67
2021/07/20 01:13:00;;;;;;;7.13;2.53;;;;;;;13.82;78.21;101153.56;5074875;28;20166;-68
2021/07/20 01:15:26;;;;;;;5.00;2.43;;;;;;;13.85;78.26;101156.06;5091727;28;20170;-68
2021/07/20 01:17:55;;;;;;;7.10;2.80;;;;;;;13.92;78.17;101161.91;5091635;28;20186;-68
2021/07/20 01:20:22;;;;;;;5.60;2.60;;;;;;;13.95;77.76;101157.22;5095156;28;20170;-68
2021/07/20 01:23:05;;;;;;;6.40;2.30;;;;;;;13.91;78.01;101155.69;5095712;28;20208;-68
2021/07/20 01:25:30;;;;;;;4.43;2.40;;;;;;;13.89;78.13;101157.59;5095655;28;20154;-68
2021/07/20 01:28:05;;;;;;;5.83;2.47;;;;;;;13.86;78.48;101160.47;5095513;28;20712;-68
2021/07/20 01:30:32;;;;;;;4.60;2.30;;;;;;;13.81;78.56;101156.34;5096538;28;20220;-68
2021/07/20 01:32:58;;;;;;;4.10;2.50;;;;;;;13.78;78.83;101157.41;5095519;28;20253;-68
2021/07/20 01:35:24;;;;;;;3.93;2.50;;;;;;;13.84;78.53;101153.47;5095589;28;20182;-68
2021/07/20 01:37:50;;;;;;;6.07;2.50;;;;;;;13.80;78.71;101154.63;5096928;28;20223;-68
2021/07/20 01:40:16;;;;;;;5.93;2.53;;;;;;;13.78;78.73;101168.13;5095448;28;20178;-68
2021/07/20 01:42:42;;;;;;;5.97;2.27;;;;;;;13.76;78.87;101159.31;5095460;28;20205;-68
2021/07/20 01:45:08;;;;;;;4.83;2.20;;;;;;;13.79;79.07;101159.13;5095242;28;20178;-68
2021/07/20 01:47:37;;;;;;;9.70;2.40;;;;;;;13.76;79.21;101162.00;5078446;28;20243;-68
2021/07/20 01:50:03;;;;;;;3.37;2.23;;;;;;;13.78;79.06;101157.41;5095514;28;20185;-68
2021/07/20 01:52:31;;;;;;;8.80;2.50;;;;;;;13.74;79.15;101155.84;5096238;28;20194;-68
2021/07/20 01:54:56;;;;;;;6.00;2.80;;;;;;;13.80;78.93;101152.81;5078160;28;20213;-68
2021/07/20 01:57:22;;;;;;;5.40;2.50;;;;;;;13.83;78.83;101151.75;5095231;28;20257;-68
2021/07/20 01:59:47;;;;;;;5.40;2.53;;;;;;;13.80;79.07;101150.13;5096580;28;20181;-68
2021/07/20 02:02:35;;;;;;;9.20;2.80;;;;;;;13.84;79.28;101157.03;5096203;28;20206;-68
2021/07/20 02:10:32;;;;;;;6.80;2.80;;;;;;;13.67;80.32;101159.84;5095562;28;20196;-68
2021/07/20 02:13:01;;;;;;;7.50;2.90;;;;;;;13.66;80.64;101152.78;5096546;28;20174;-68
2021/07/20 02:15:27;;;;;;;5.60;2.93;;;;;;;13.63;80.96;101153.81;5095259;28;20174;-68
2021/07/20 02:17:53;;;;;;;5.67;2.83;;;;;;;13.52;81.35;101155.44;5094887;28;20178;-68
2021/07/20 02:20:21;;;;;;;4.47;2.57;;;;;;;13.55;81.47;101150.75;5095210;28;20167;-68
2021/07/20 02:22:46;;;;;;;8.30;2.80;;;;;;;13.56;81.62;101152.47;5094544;28;20698;-68
2021/07/20 02:25:13;;;;;;;7.13;3.03;;;;;;;13.54;82.19;101154.38;5094537;28;20182;-68
2021/07/20 02:27:39;;;;;;;6.83;3.07;;;;;;;13.45;82.34;101155.81;5094496;28;20261;-69
2021/07/20 02:30:09;;;;;;;6.47;2.87;;;;;;;13.53;82.33;101149.13;5095344;28;20305;-69
2021/07/20 02:32:34;;;;;;;7.17;2.80;;;;;;;13.45;82.35;101158.47;5094954;28;20198;-69
2021/07/20 02:35:00;;;;;;;7.43;3.20;;;;;;;13.47;82.73;101153.03;5095222;28;20184;-69
2021/07/20 02:37:29;;;;;;;7.27;3.50;;;;;;;13.43;82.99;101141.63;5094573;28;20179;-69
2021/07/20 02:39:54;;;;;;;6.00;2.70;;;;;;;13.43;83.20;101149.66;5094386;28;20304;-69
2021/07/20 02:42:20;;;;;;;6.83;3.53;;;;;;;13.51;83.36;101148.34;5094604;28;20222;-68
2021/07/20 02:44:46;;;;;;;6.30;3.07;;;;;;;13.49;82.99;101145.75;5094416;28;20584;-69
2021/07/20 02:47:12;;;;;;;10.77;4.73;;;;;;;13.48;84.04;101146.72;5094228;28;20180;-69
2021/07/20 02:49:39;;;;;;;9.37;4.70;;;;;;;13.45;83.74;101145.06;5094085;28;20216;-68
2021/07/20 02:52:05;;;;;;;8.67;3.70;;;;;;;13.43;84.32;101149.66;5093827;28;20264;-69
2021/07/20 02:54:31;;;;;;;9.90;3.70;;;;;;;13.39;84.33;101145.44;5093813;28;20182;-68
2021/07/20 02:56:57;;;;;;;7.07;4.13;;;;;;;13.42;84.42;101145.25;5095108;28;20269;-68
2021/07/20 02:59:24;;;;;;;5.53;3.43;;;;;;;13.42;84.70;101150.63;5094217;28;20181;-69
2021/07/20 03:01:54;;;;;;;6.93;3.83;;;;;;;13.49;84.44;101156.47;5093750;28;20232;-69
2021/07/20 03:04:19;;;;;;;6.73;3.60;;;;;;;13.41;85.11;101148.91;5095263;28;20565;-68
2021/07/20 03:06:51;;;;;;;5.80;3.73;;;;;;;13.41;85.07;101143.53;5093837;28;20202;-68
2021/07/20 03:09:19;;;;;;;5.87;3.40;;;;;;;13.51;85.21;101137.63;5094065;28;20188;-68
2021/07/20 03:11:48;;;;;;;10.87;3.60;;;;;;;13.48;84.96;101137.81;5093503;28;20227;-68
2021/07/20 03:14:16;;;;;;;8.30;3.40;;;;;;;13.45;85.50;101133.50;5093636;28;20170;-68
2021/07/20 03:16:42;;;;;;;7.67;3.40;;;;;;;13.51;85.41;101137.63;5093980;28;20688;-68
2021/07/20 03:19:08;;;;;;;9.43;3.70;;;;;;;13.57;85.33;101130.06;5093740;28;20170;-69
2021/07/20 03:21:36;;;;;;;6.70;3.20;;;;;;;13.66;85.20;101142.91;5093387;28;20197;-68
2021/07/20 03:24:02;;;;;;;6.63;3.57;;;;;;;13.68;85.07;101140.13;5076520;28;20174;-68
2021/07/20 03:26:27;;;;;;;9.17;3.53;;;;;;;13.71;85.08;101138.13;5093572;28;20178;-68
2021/07/20 03:28:53;;;;;;;9.13;3.77;;;;;;;13.83;84.72;101138.34;5093674;28;20178;-68
2021/07/20 03:31:19;;;;;;;11.50;6.53;;;;;;;13.91;84.69;101141.41;5093187;28;20578;-67
2021/07/20 03:33:45;;;;;;;8.47;3.60;;;;;;;13.91;84.40;101146.78;5093265;28;20181;-68
2021/07/20 03:36:10;;;;;;;7.10;3.80;;;;;;;14.05;83.89;101147.63;5093430;28;20631;-68
2021/07/20 03:38:37;;;;;;;7.37;4.10;;;;;;;13.99;84.69;101145.34;5094339;28;20178;-68
2021/07/20 03:41:03;;;;;;;6.03;3.60;;;;;;;13.97;84.83;101139.19;5094124;28;20222;-68
2021/07/20 03:43:29;;;;;;;11.17;3.93;;;;;;;13.98;85.01;101142.75;5093039;28;20265;-68
2021/07/20 03:45:55;;;;;;;8.30;4.10;;;;;;;13.96;85.13;101142.84;5075931;28;20213;-68
2021/07/20 03:48:21;;;;;;;6.40;3.97;;;;;;;13.95;85.47;101146.50;5092840;28;20190;-68
2021/07/20 03:50:47;;;;;;;9.23;3.50;;;;;;;13.94;85.69;101141.22;5093186;28;20199;-68
2021/07/20 03:53:13;;;;;;;9.57;3.50;;;;;;;13.97;86.23;101139.19;5093938;28;20178;-68
2021/07/20 03:55:45;;;;;;;8.87;4.17;;;;;;;14.09;85.65;101141.09;5093007;28;20224;-68
2021/07/20 03:58:12;;;;;;;6.70;3.70;;;;;;;14.16;85.47;101138.06;5092619;28;20265;-68
2021/07/20 04:00:38;;;;;;;8.53;3.43;;;;;;;14.14;85.78;101140.84;5092507;28;20619;-68
2021/07/20 04:03:22;;;;;;;6.80;3.57;;;;;;;14.17;85.48;101132.59;5097988;22;20239;-69
2021/07/20 04:05:50;;;;;;;5.23;3.60;;;;;;;14.32;85.45;101141.50;5058738;28;20663;-69
2021/07/20 04:08:17;;;;;;;7.10;3.57;;;;;;;14.33;85.26;101146.75;5072722;28;20651;-68
2021/07/20 04:10:43;;;;;;;5.00;3.40;;;;;;;14.32;85.42;101139.69;5073005;28;20256;-68
2021/07/20 04:13:12;;;;;;;10.73;3.77;;;;;;;14.34;85.43;101144.94;5089640;28;20190;-68
2021/07/20 04:15:48;;;;;;;11.63;6.23;;;;;;;14.39;85.17;101137.44;5073858;28;20650;-68
2021/07/20 04:18:14;;;;;;;8.10;3.90;;;;;;;14.38;85.11;101141.09;5055809;28;20191;-69
2021/07/20 04:20:40;;;;;;;6.70;3.60;;;;;;;14.55;84.70;101140.94;5072438;28;20171;-68
2021/07/20 04:23:09;;;;;;;6.47;4.50;;;;;;;14.61;84.57;101135.16;5072334;28;20195;-69
2021/07/20 04:25:35;;;;;;;6.63;3.07;;;;;;;14.66;84.32;101142.91;5072291;28;20265;-69
2021/07/20 04:28:01;;;;;;;6.80;3.87;;;;;;;14.73;84.07;101140.69;5072460;28;20603;-68
2021/07/20 04:30:26;;;;;;;7.57;4.30;;;;;;;14.78;83.64;101141.25;5073368;28;20199;-69
2021/07/20 04:32:52;;;;;;;8.17;3.87;;;;;;;14.84;83.66;101138.16;5072289;28;20562;-69
2021/07/20 04:35:18;;;;;;;12.80;4.30;;;;;;;14.84;83.79;101141.69;5073939;28;20692;-69
2021/07/20 04:37:44;;;;;;;7.27;3.80;;;;;;;14.89;83.20;101136.91;5072307;28;20254;-69
2021/07/20 04:40:11;;;;;;;7.23;3.50;;;;;;;15.00;83.26;101138.88;5072217;28;20179;-69
2021/07/20 04:42:37;;;;;;;7.00;3.10;;;;;;;15.04;82.61;101142.22;5072133;28;20199;-69
2021/07/20 04:45:03;;;;;;;7.70;3.20;;;;;;;15.07;82.91;101129.44;5072433;28;20627;-69
2021/07/20 04:47:28;;;;;;;11.57;3.80;;;;;;;15.14;82.58;101136.13;5072661;28;20726;-69
2021/07/20 04:49:54;;;;;;;8.37;3.73;;;;;;;15.08;82.74;101131.16;5072164;28;20253;-68
2021/07/20 04:52:20;;;;;;;9.00;3.23;;;;;;;14.96;83.69;101138.22;5055095;28;20209;-68
2021/07/20 04:54:46;;;;;;;10.53;3.70;;;;;;;14.93;84.35;101140.25;5071595;28;20230;-68
2021/07/20 04:57:11;;;;;;;12.10;3.60;;;;;;;14.89;84.35;101142.28;5071838;28;20183;-68
2021/07/20 04:59:38;;;;;;;5.60;3.67;;;;;;;14.79;85.18;101137.59;5072277;28;20179;-69
2021/07/20 05:02:04;;;;;;;7.03;4.13;;;;;;;14.74;85.60;101140.59;5073053;28;20226;-68
2021/07/20 05:04:31;;;;;;;7.57;3.90;;;;;;;14.79;85.51;101140.28;5071845;28;20221;-69
2021/07/20 05:06:56;;;;;;;7.27;4.37;;;;;;;14.69;86.51;101143.56;5072062;28;20274;-69
2021/07/20 05:09:22;;;;;;;9.13;5.67;;;;;;;14.76;86.12;101145.84;5071729;28;20590;-69
2021/07/20 05:11:47;;;;;;;9.03;3.77;;;;;;;14.75;86.72;101141.44;5055405;28;20230;-68
2021/07/20 05:14:13;;;;;;;7.93;5.13;;;;;;;14.77;87.06;101152.94;5072276;28;20535;-69
2021/07/20 05:16:38;;;;;;;10.33;4.77;;;;;;;14.81;87.22;101149.97;5072284;28;20186;-69
2021/07/20 05:19:04;;;;;;;7.60;4.57;;;;;;;14.88;86.77;101145.94;5071666;28;20257;-69
2021/07/20 05:21:29;;;;;;;9.47;4.37;;;;;;;14.88;87.10;101148.63;5072703;28;20276;-69
2021/07/20 05:23:55;;;;;;;6.57;3.97;;;;;;;15.01;87.17;101151.34;5071531;28;20182;-69
2021/07/20 05:26:21;;;;;;;11.00;5.07;;;;;;;15.07;87.13;101150.06;5071791;28;20186;-69
2021/07/20 05:28:47;;;;;;;6.27;4.13;;;;;;;15.12;87.19;101148.81;5054569;28;20171;-69
2021/07/20 05:31:12;;;;;;;9.30;4.63;;;;;;;15.31;86.83;101145.75;5071478;28;20207;-69
2021/07/20 05:33:39;;;;;;;9.93;4.27;;;;;;;15.41;86.80;101148.66;5071523;28;20547;-69
2021/07/20 05:36:08;;;;;;;9.40;4.20;;;;;;;15.71;85.38;101152.00;5072602;28;20182;-69
2021/07/20 05:38:34;;;;;;;9.03;3.83;;;;;;;16.01;84.45;101159.75;5071342;28;20182;-69
2021/07/20 05:40:59;;;;;;;8.40;3.83;;;;;;;16.21;83.73;101153.81;5071161;28;20632;-69
2021/07/20 05:43:26;;;;;;;10.10;4.00;;;;;;;16.41;82.48;101149.69;5071823;28;20178;-69
2021/07/20 05:45:58;;;;;;;7.47;3.90;;;;;;;16.55;81.92;101160.31;5071176;28;20243;-69
2021/07/20 05:48:24;;;;;;;8.30;4.23;;;;;;;16.63;81.70;101164.28;5071307;28;20171;-69
2021/07/20 05:50:54;;;;;;;7.43;4.10;;;;;;;16.70;81.88;101152.97;5071379;28;20661;-69
2021/07/20 05:53:22;;;;;;;7.93;4.10;;;;;;;16.87;81.18;101159.84;5071249;28;20236;-68
2021/07/20 05:55:51;;;;;;;6.87;3.73;;;;;;;16.98;80.97;101159.03;5071923;28;20175;-69
2021/07/20 05:58:18;;;;;;;10.30;4.23;;;;;;;17.11;80.14;101166.09;5072316;28;20186;-69
2021/07/20 06:00:43;;;;;;;6.83;3.67;;;;;;;17.14;79.85;101163.19;5071098;28;20171;-69
2021/07/20 06:03:17;;;;;;;12.00;4.07;;;;;;;17.21;79.19;101162.72;5071029;28;20206;-69
2021/07/20 06:05:43;;;;;;;10.13;4.67;;;;;;;17.22;79.57;101164.44;5071595;28;20265;-69
2021/07/20 06:08:14;;;;;;;7.13;4.30;;;;;;;17.34;78.94;101160.78;5074638;28;20264;-69
2021/07/20 06:10:39;;;;;;;7.93;3.37;;;;;;;17.31;79.69;101169.13;5074594;28;20274;-68
2021/07/20 06:13:04;;;;;;;8.33;3.90;;;;;;;17.47;78.87;101169.69;5074491;28;20790;-69
2021/07/20 06:15:30;;;;;;;16.53;4.13;;;;;;;17.46;77.75;101173.34;5074496;28;20179;-69
2021/07/20 06:17:58;;;;;;;9.37;3.93;;;;;;;17.52;78.00;101181.00;5074760;28;20531;-69
2021/07/20 06:20:24;;;;;;;13.37;3.60;;;;;;;17.43;78.30;101181.66;5075761;28;20171;-69
2021/07/20 06:22:52;;;;;;;9.10;3.90;;;;;;;17.46;78.79;101190.38;5074437;28;20195;-69
2021/07/20 06:25:19;;;;;;;8.93;4.40;;;;;;;17.46;78.54;101179.59;5074254;28;20225;-69
2021/07/20 06:27:46;;;;;;;14.63;4.40;;;;;;;17.45;78.67;101180.56;5075660;28;20586;-69
2021/07/20 06:30:13;;;;;;;9.47;4.13;;;;;;;17.52;79.11;101181.00;5074375;28;20611;-69
2021/07/20 06:32:39;;;;;;;8.30;3.87;;;;;;;17.57;79.03;101184.19;5074005;28;20204;-68
2021/07/20 06:35:05;;;;;;;9.90;4.20;;;;;;;17.56;78.83;101187.00;5075549;28;20171;-68
2021/07/20 06:37:30;;;;;;;13.03;4.57;;;;;;;17.36;79.27;101188.50;5073937;28;20198;-67
2021/07/20 06:39:55;;;;;;;14.07;4.50;;;;;;;17.41;78.66;101189.03;5073808;28;20179;-69
2021/07/20 06:42:22;;;;;;;12.67;5.00;;;;;;;17.40;78.76;101193.56;5074046;28;20278;-69
2021/07/20 06:44:47;;;;;;;9.67;4.40;;;;;;;17.41;79.25;101189.88;5074062;28;20480;-69
2021/07/20 06:47:17;;;;;;;11.77;4.57;;;;;;;17.53;78.40;101192.66;5075473;28;20782;-69
2021/07/20 06:49:47;;;;;;;9.27;4.20;;;;;;;17.61;78.24;101196.47;5074989;28;20175;-69
2021/07/20 06:52:14;;;;;;;11.23;4.67;;;;;;;17.69;78.23;101196.78;5073833;28;20544;-69
2021/07/20 06:54:39;;;;;;;11.37;4.30;;;;;;;17.74;77.27;101191.88;5073975;28;20531;-69
2021/07/20 06:57:05;;;;;;;13.27;4.30;;;;;;;17.80;77.59;101194.09;5074211;28;20182;-69
2021/07/20 06:59:34;;;;;;;9.00;4.17;;;;;;;17.89;77.46;101197.09;5074153;28;20578;-69
2021/07/20 07:01:59;;;;;;;13.00;4.00;;;;;;;18.07;76.12;101199.19;5073332;28;20261;-69
2021/07/20 07:04:47;;;;;;;9.97;4.30;;;;;;;18.24;75.33;101199.72;5073552;28;20179;-69
2021/07/20 07:07:13;;;;;;;15.20;4.13;;;;;;;18.33;75.02;101201.69;5073608;28;20225;-69
2021/07/20 07:09:39;;;;;;;8.50;3.60;;;;;;;18.52;74.81;101201.06;5073172;28;20551;-69
2021/07/20 07:12:05;;;;;;;7.43;4.00;;;;;;;18.63;73.44;101191.16;5073099;28;20203;-69
2021/07/20 07:14:32;;;;;;;9.00;4.03;;;;;;;18.74;73.38;101195.69;5073153;28;20195;-69
2021/07/20 07:16:59;;;;;;;7.20;3.90;;;;;;;18.85;72.36;101198.38;5072784;28;20713;-69
2021/07/20 07:19:24;;;;;;;9.87;4.07;;;;;;;18.63;72.52;101195.72;5072975;28;20194;-68
2021/07/20 07:21:50;;;;;;;9.47;3.80;;;;;;;18.99;72.22;101192.69;5075188;28;20199;-69
2021/07/20 07:24:17;;;;;;;6.97;3.70;;;;;;;18.99;71.59;101192.69;5074489;28;20193;-68
2021/07/20 07:26:44;;;;;;;9.10;3.93;;;;;;;19.01;71.63;101195.28;5072879;28;20300;-69
2021/07/20 07:29:10;;;;;;;9.13;3.80;;;;;;;18.98;71.57;101193.69;5073048;28;20182;-69
2021/07/20 07:31:36;;;;;;;7.03;3.50;;;;;;;19.06;71.07;101198.47;5056240;28;20736;-69
2021/07/20 07:34:02;;;;;;;11.50;3.70;;;;;;;19.10;71.38;101197.22;5072826;28;20635;-69
2021/07/20 07:36:28;;;;;;;10.13;3.70;;;;;;;19.04;71.31;101204.00;5073472;28;20181;-68
2021/07/20 07:38:54;;;;;;;10.97;4.13;;;;;;;19.05;71.81;101200.31;5073353;28;20182;-68
2021/07/20 07:41:20;;;;;;;9.00;3.80;;;;;;;18.99;71.34;101195.41;5072741;28;20287;-68
2021/07/20 07:43:46;;;;;;;5.20;3.00;;;;;;;18.95;70.89;101191.22;5072762;28;20535;-68
2021/07/20 07:46:12;;;;;;;10.83;3.33;;;;;;;18.93;71.33;101195.03;5072972;28;20261;-69
2021/07/20 07:48:41;;;;;;;9.93;4.03;;;;;;;18.71;71.63;101202.22;5072706;28;20653;-68
2021/07/20 07:51:11;;;;;;;12.60;4.43;;;;;;;19.12;70.42;101194.38;5056267;28;20659;-69
2021/07/20 07:53:37;;;;;;;8.10;3.40;;;;;;;19.09;69.67;101192.78;5072764;28;20278;-70
2021/07/20 07:56:04;;;;;;;7.53;3.50;;;;;;;19.14;69.79;101197.81;5056050;28;20182;-67
2021/07/20 07:58:29;;;;;;;8.87;3.13;;;;;;;19.29;68.46;101191.97;5072550;28;20232;-68
2021/07/20 08:00:57;;;;;;;9.00;3.53;;;;;;;19.34;68.64;101188.91;5055699;28;20167;-68
2021/07/20 08:03:26;;;;;;;7.23;3.30;;;;;;;19.46;67.45;101195.13;5072197;28;20236;-67
2021/07/20 08:05:51;;;;;;;7.77;3.60;;;;;;;19.68;67.66;101192.31;5072306;28;20511;-68
2021/07/20 08:08:17;;;;;;;14.30;4.00;;;;;;;19.81;67.22;101201.16;5072830;28;20186;-68
2021/07/20 08:10:43;;;;;;;8.77;3.47;;;;;;;20.36;64.06;101199.03;5073550;28;20195;-68
2021/07/20 08:13:13;;;;;;;6.37;3.40;;;;;;;20.58;63.78;101195.31;5072366;28;20203;-68
2021/07/20 08:15:38;;;;;;;9.20;3.13;;;;;;;21.01;62.97;101200.44;5072499;28;20285;-68
2021/07/20 08:18:04;;;;;;;11.90;4.53;;;;;;;21.54;61.20;101203.66;5072236;28;20175;-69
2021/07/20 08:20:30;;;;;;;10.20;3.10;;;;;;;21.63;60.01;101198.41;5073433;28;20178;-68
2021/07/20 08:22:56;;;;;;;5.47;2.63;;;;;;;21.73;59.48;101196.53;5073463;28;20229;-69
2021/07/20 08:25:27;;;;;;;11.10;5.50;;;;;;;21.50;58.31;101196.81;5073180;28;20249;-69
2021/07/20 08:27:58;;;;;;;8.30;3.00;;;;;;;21.05;60.46;101190.16;5073575;28;20669;-69
2021/07/20 08:30:24;;;;;;;8.73;3.00;;;;;;;20.52;62.29;101195.88;5055426;28;20190;-69
2021/07/20 08:32:52;;;;;;;7.03;3.03;;;;;;;20.36;63.89;101196.31;5072162;28;20619;-68
2021/07/20 08:35:20;;;;;;;5.00;2.73;;;;;;;19.95;63.15;101197.22;5072134;28;20171;-69
2021/07/20 08:37:47;;;;;;;5.00;2.50;;;;;;;20.22;63.12;101196.69;5073470;28;20199;-69
2021/07/20 08:40:27;;;;;;;6.57;2.97;;;;;;;19.76;63.70;101200.69;5072255;28;20210;-68
2021/07/20 08:43:30;;;;;;;9.70;2.97;;;;;;;19.84;63.02;101198.16;5073466;28;20615;-68
2021/07/20 08:46:04;;;;;;;7.23;2.77;;;;;;;20.02;61.74;101205.69;5074386;28;20570;-68
2021/07/20 08:48:57;;;;;;;5.67;3.00;;;;;;;20.47;60.86;101204.41;5076093;28;20193;-69
2021/07/20 08:51:29;;;;;;;4.60;2.57;;;;;;;20.57;61.19;101205.31;5081708;28;20214;-68
2021/07/20 08:54:07;;;;;;;11.07;3.20;;;;;;;20.42;62.32;101211.22;5081686;28;20178;-68
2021/07/20 08:56:38;;;;;;;7.40;2.90;;;;;;;20.27;62.71;101198.00;5058088;28;20163;-69
2021/07/20 08:59:07;;;;;;;5.17;2.60;;;;;;;20.65;61.31;101203.75;5072114;28;20206;-69
2021/07/20 09:01:43;;;;;;;8.90;5.50;;;;;;;20.69;60.89;101200.63;5071642;28;20206;-69
2021/07/20 09:04:16;;;;;;;6.83;2.40;;;;;;;20.72;61.38;101200.34;5072571;28;20235;-69
2021/07/20 09:06:49;;;;;;;11.07;4.50;;;;;;;20.99;60.94;101210.59;5072876;28;20163;-68
2021/07/20 09:09:21;;;;;;;7.80;3.33;;;;;;;20.85;61.83;101209.13;5071896;28;20183;-69
2021/07/20 09:12:13;;;;;;;7.53;3.30;;;;;;;20.62;63.37;101207.59;5071706;28;20229;-69
2021/07/20 09:14:49;;;;;;;8.57;3.63;;;;;;;20.54;64.15;101208.28;5071673;28;20181;-68
2021/07/20 09:17:33;;;;;;;9.10;3.93;;;;;;;20.23;64.97;101210.09;5071805;28;20174;-68
2021/07/20 09:20:03;;;;;;;8.13;3.10;;;;;;;19.98;65.14;101208.66;5073571;28;20497;-68
2021/07/20 09:22:44;;;;;;;10.67;3.93;;;;;;;19.76;66.24;101208.81;5071681;28;20244;-68
2021/07/20 09:25:13;;;;;;;7.70;3.13;;;;;;;19.62;67.38;101203.69;5072949;28;20224;-68
2021/07/20 09:27:51;;;;;;;8.87;3.60;;;;;;;19.59;67.62;101215.63;5072128;28;20174;-68
2021/07/20 09:30:23;;;;;;;7.33;3.30;;;;;;;19.51;68.63;101203.72;5073012;28;20167;-69
2021/07/20 09:33:01;;;;;;;6.43;3.13;;;;;;;19.04;69.95;101200.44;5054614;28;20222;-68
2021/07/20 09:35:33;;;;;;;10.63;3.97;;;;;;;18.72;72.12;101216.59;5071540;28;20166;-68
2021/07/20 09:38:28;;;;;;;8.17;3.10;;;;;;;19.63;68.01;101208.13;5073476;28;20159;-68
2021/07/20 09:41:06;;;;;;;15.20;3.50;;;;;;;19.82;67.85;101204.72;5073573;28;20189;-68
2021/07/20 09:43:43;;;;;;;7.77;3.77;;;;;;;19.81;68.96;101211.97;5075574;28;20170;-68
2021/07/20 09:46:17;;;;;;;10.93;3.80;;;;;;;19.50;68.25;101210.97;5075833;28;20166;-68
2021/07/20 09:48:53;;;;;;;10.03;3.90;;;;;;;19.72;67.99;101204.66;5075278;28;20190;-68
2021/07/20 09:51:28;;;;;;;7.13;3.13;;;;;;;19.64;68.45;101215.25;5075022;28;20686;-68
2021/07/20 09:54:10;;;;;;;10.37;3.20;;;;;;;19.53;68.61;101210.75;5058845;28;20179;-70
2021/07/20 09:56:41;;;;;;;8.73;3.70;;;;;;;19.11;70.29;101203.50;5075405;28;20523;-69
2021/07/20 09:59:13;;;;;;;11.07;4.27;;;;;;;19.19;69.93;101207.25;5075262;28;20238;-69
2021/07/20 10:01:53;;;;;;;9.37;3.73;;;;;;;19.06;68.35;101195.75;5076205;28;20263;-69
2021/07/20 10:04:33;;;;;;;8.17;3.67;;;;;;;18.98;67.76;101193.69;5075473;28;20170;-69
2021/07/20 10:07:25;;;;;;;5.90;3.27;;;;;;;18.71;68.12;101195.94;5075341;28;20599;-68
2021/07/20 10:09:53;;;;;;;7.00;3.50;;;;;;;18.59;69.70;101196.91;5037941;28;20614;-68
2021/07/20 10:12:37;;;;;;;7.77;3.37;;;;;;;18.79;69.69;101198.00;5075248;28;20202;-68
2021/07/20 10:15:05;;;;;;;7.50;3.57;;;;;;;18.91;69.48;101205.13;5074585;28;20185;-68
2021/07/20 10:17:59;;;;;;;9.47;3.83;;;;;;;18.64;71.01;101194.72;5074791;28;20183;-67
2021/07/20 10:20:33;;;;;;;10.00;3.50;;;;;;;18.80;70.81;101206.00;5075054;28;20159;-68
2021/07/20 10:23:25;;;;;;;7.87;3.47;;;;;;;18.71;70.83;101204.06;5074393;28;20282;-67
2021/07/20 10:26:02;;;;;;;6.90;3.20;;;;;;;18.90;70.80;101206.97;5065549;28;20663;-67
2021/07/20 10:28:54;;;;;;;7.43;3.40;;;;;;;18.71;71.36;101204.91;5074505;28;20251;-67
2021/07/20 10:31:27;;;;;;;9.17;3.50;;;;;;;18.83;70.73;101202.19;5072481;28;20227;-68
2021/07/20 10:34:05;;;;;;;9.23;3.20;;;;;;;19.02;69.75;101208.69;5074296;28;20701;-67
2021/07/20 10:36:50;;;;;;;8.83;3.50;;;;;;;18.74;70.03;101206.50;5057277;28;20170;-69
2021/07/20 10:39:39;;;;;;;8.27;3.00;;;;;;;18.87;68.28;101204.50;5074184;28;20243;-69
2021/07/20 10:42:23;;;;;;;8.83;3.53;;;;;;;18.70;70.57;101207.75;5074259;28;20244;-69
2021/07/20 10:45:00;;;;;;;7.13;3.67;;;;;;;18.76;72.08;101206.38;5075519;28;20171;-69
2021/07/20 10:47:35;;;;;;;7.00;3.33;;;;;;;18.63;71.63;101203.81;5073980;28;20197;-69
2021/07/20 10:50:08;;;;;;;8.30;3.47;;;;;;;18.39;71.95;101202.06;5057241;28;20185;-69
2021/07/20 10:52:55;;;;;;;9.73;3.47;;;;;;;18.38;72.11;101200.34;5073207;28;20267;-69
2021/07/20 10:55:26;;;;;;;8.17;3.33;;;;;;;18.10;71.38;101200.78;5075164;28;20179;-69
2021/07/20 10:57:59;;;;;;;10.77;3.80;;;;;;;18.27;72.67;101203.03;5074057;28;20669;-69
2021/07/20 11:00:29;;;;;;;7.87;3.30;;;;;;;18.20;70.71;101201.78;5074173;28;20166;-69
2021/07/20 11:03:09;;;;;;;6.97;3.20;;;;;;;18.68;68.67;101197.06;5075229;28;20402;-69
2021/07/20 11:05:35;;;;;;;6.53;3.10;;;;;;;19.16;66.14;101194.00;5074011;28;20245;-71
2021/07/20 11:08:03;;;;;;;7.77;3.47;;;;;;;19.67;65.23;101199.59;5074156;28;20182;-70
2021/07/20 11:10:33;;;;;;;6.70;2.70;;;;;;;19.91;61.94;101193.06;5074082;28;20203;-70
2021/07/20 11:13:07;;;;;;;6.87;3.37;;;;;;;20.16;61.48;101195.38;5073650;28;20199;-69
2021/07/20 11:15:34;;;;;;;7.43;3.00;;;;;;;20.42;60.53;101190.38;5073767;28;20174;-70
2021/07/20 11:18:04;;;;;;;6.90;2.80;;;;;;;20.76;60.55;101184.66;5073780;28;20178;-70
2021/07/20 11:20:30;;;;;;;4.27;2.70;;;;;;;21.26;58.24;101190.97;5057629;28;20500;-69
2021/07/20 11:22:58;;;;;;;8.13;3.10;;;;;;;21.02;59.70;101193.16;5073406;28;20194;-69
2021/07/20 11:25:24;;;;;;;8.63;3.13;;;;;;;21.72;55.28;101190.25;5056884;28;20269;-70
2021/07/20 11:27:49;;;;;;;7.10;2.80;;;;;;;21.69;56.63;101200.53;5073071;28;20319;-69
2021/07/20 11:30:17;;;;;;;5.97;2.40;;;;;;;22.01;52.64;101203.78;5073194;28;20699;-69
2021/07/20 11:32:57;;;;;;;8.80;2.50;;;;;;;21.95;51.61;101193.50;5074397;28;20205;-68
2021/07/20 11:35:24;;;;;;;8.63;2.63;;;;;;;22.12;51.51;101192.78;5074736;28;20155;-70
2021/07/20 11:37:56;;;;;;;6.47;2.93;;;;;;;21.78;52.16;101183.38;5057371;28;20205;-70